sensor_id;sensor_type;location;lat;lon;timestamp;pressure;altitude;pressure_sealevel;temperature;humidity
37852;BME280;23691;52.486;4.650;2023-02-17T00:02:14;101841.81;;;9.38;96.70
37852;BME280;23691;52.486;4.650;2023-02-17T00:04:40;101839.41;;;9.35;96.85
37852;BME280;23691;52.486;4.650;2023-02-17T00:07:05;101837.72;;;9.34;96.76
37852;BME280;23691;52.486;4.650;2023-02-17T00:09:31;101842.94;;;9.36;96.80
37852;BME280;23691;52.486;4.650;2023-02-17T00:11:56;101842.09;;;9.35;96.75
37852;BME280;23691;52.486;4.650;2023-02-17T00:14:21;101841.22;;;9.35;96.76
37852;BME280;23691;52.486;4.650;2023-02-17T00:16:47;101834.19;;;9.34;96.80
37852;BME280;23691;52.486;4.650;2023-02-17T00:19:12;101823.53;;;9.34;96.85
37852;BME280;23691;52.486;4.650;2023-02-17T00:21:57;101822.69;;;9.33;97.09
37852;BME280;23691;52.486;4.650;2023-02-17T00:24:25;101817.56;;;9.30;96.93
37852;BME280;23691;52.486;4.650;2023-02-17T00:26:56;101805.22;;;9.29;97.10
37852;BME280;23691;52.486;4.650;2023-02-17T00:29:22;101807.75;;;9.31;97.17
37852;BME280;23691;52.486;4.650;2023-02-17T00:31:48;101804.94;;;9.32;97.18
37852;BME280;23691;52.486;4.650;2023-02-17T00:34:16;101799.59;;;9.32;97.09
37852;BME280;23691;52.486;4.650;2023-02-17T00:36:42;101807.63;;;9.32;97.02
37852;BME280;23691;52.486;4.650;2023-02-17T00:39:08;101794.41;;;9.31;97.06
37852;BME280;23691;52.486;4.650;2023-02-17T00:41:33;101791.59;;;9.32;97.13
37852;BME280;23691;52.486;4.650;2023-02-17T00:43:59;101795.25;;;9.31;97.03
37852;BME280;23691;52.486;4.650;2023-02-17T00:46:25;101813.09;;;9.31;97.13
37852;BME280;23691;52.486;4.650;2023-02-17T00:48:51;101799.75;;;9.31;97.16
37852;BME280;23691;52.486;4.650;2023-02-17T00:51:17;101811.28;;;9.31;97.10
37852;BME280;23691;52.486;4.650;2023-02-17T00:53:44;101798.75;;;9.32;97.21
37852;BME280;23691;52.486;4.650;2023-02-17T00:56:10;101795.97;;;9.33;96.99
37852;BME280;23691;52.486;4.650;2023-02-17T00:58:36;101788.91;;;9.32;97.01
37852;BME280;23691;52.486;4.650;2023-02-17T01:01:02;101786.25;;;9.32;97.18
37852;BME280;23691;52.486;4.650;2023-02-17T01:03:29;101786.25;;;9.32;96.96
37852;BME280;23691;52.486;4.650;2023-02-17T01:05:55;101786.53;;;9.29;97.04
37852;BME280;23691;52.486;4.650;2023-02-17T01:08:21;101786.66;;;9.28;97.33
37852;BME280;23691;52.486;4.650;2023-02-17T01:10:49;101785.97;;;9.26;97.13
37852;BME280;23691;52.486;4.650;2023-02-17T01:13:16;101794.09;;;9.24;97.25
37852;BME280;23691;52.486;4.650;2023-02-17T01:15:50;101798.31;;;9.27;97.57
37852;BME280;23691;52.486;4.650;2023-02-17T01:18:17;101802.81;;;9.26;97.72
37852;BME280;23691;52.486;4.650;2023-02-17T01:20:43;101784.13;;;9.26;97.97
37852;BME280;23691;52.486;4.650;2023-02-17T01:23:09;101807.88;;;9.29;97.90
37852;BME280;23691;52.486;4.650;2023-02-17T01:25:40;101801.72;;;9.29;97.81
37852;BME280;23691;52.486;4.650;2023-02-17T01:28:07;101795.53;;;9.28;97.77
37852;BME280;23691;52.486;4.650;2023-02-17T01:30:33;101805.22;;;9.29;97.61
37852;BME280;23691;52.486;4.650;2023-02-17T01:32:59;101812.50;;;9.27;97.50
37852;BME280;23691;52.486;4.650;2023-02-17T01:35:24;101796.03;;;9.22;97.90
37852;BME280;23691;52.486;4.650;2023-02-17T01:37:50;101799.81;;;9.19;97.79
37852;BME280;23691;52.486;4.650;2023-02-17T01:40:16;101777.75;;;9.17;97.73
37852;BME280;23691;52.486;4.650;2023-02-17T01:42:42;101772.69;;;9.14;97.90
37852;BME280;23691;52.486;4.650;2023-02-17T01:50:09;101757.66;;;9.13;98.00
37852;BME280;23691;52.486;4.650;2023-02-17T01:52:35;101748.91;;;9.11;97.96
37852;BME280;23691;52.486;4.650;2023-02-17T01:55:05;101747.09;;;9.12;98.17
37852;BME280;23691;52.486;4.650;2023-02-17T01:57:34;101769.28;;;9.12;97.94
37852;BME280;23691;52.486;4.650;2023-02-17T02:00:04;101754.25;;;9.11;98.55
37852;BME280;23691;52.486;4.650;2023-02-17T02:02:30;101768.56;;;9.10;98.20
37852;BME280;23691;52.486;4.650;2023-02-17T02:04:56;101755.94;;;9.12;98.46
37852;BME280;23691;52.486;4.650;2023-02-17T02:07:31;101753.41;;;9.11;98.18
37852;BME280;23691;52.486;4.650;2023-02-17T02:09:58;101754.53;;;9.08;98.19
37852;BME280;23691;52.486;4.650;2023-02-17T02:12:43;101742.03;;;9.09;98.27
37852;BME280;23691;52.486;4.650;2023-02-17T02:15:12;101755.50;;;9.07;98.38
37852;BME280;23691;52.486;4.650;2023-02-17T02:18:12;101742.25;;;9.06;98.20
37852;BME280;23691;52.486;4.650;2023-02-17T02:21:08;101732.47;;;9.06;98.27
37852;BME280;23691;52.486;4.650;2023-02-17T02:23:50;101730.91;;;9.03;98.45
37852;BME280;23691;52.486;4.650;2023-02-17T02:35:00;101736.63;;;8.99;98.40
37852;BME280;23691;52.486;4.650;2023-02-17T02:37:38;101720.75;;;8.97;98.43
37852;BME280;23691;52.486;4.650;2023-02-17T02:40:06;101715.56;;;8.96;98.33
37852;BME280;23691;52.486;4.650;2023-02-17T02:42:33;101714.44;;;8.98;98.25
37852;BME280;23691;52.486;4.650;2023-02-17T02:44:59;101724.13;;;8.99;98.41
37852;BME280;23691;52.486;4.650;2023-02-17T02:47:44;101713.31;;;9.01;98.23
37852;BME280;23691;52.486;4.650;2023-02-17T02:50:14;101714.28;;;9.00;98.41
37852;BME280;23691;52.486;4.650;2023-02-17T02:58:26;101684.81;;;9.01;98.06
37852;BME280;23691;52.486;4.650;2023-02-17T03:01:11;101684.94;;;9.00;97.85
37852;BME280;23691;52.486;4.650;2023-02-17T03:06:30;101679.59;;;9.00;98.03
37852;BME280;23691;52.486;4.650;2023-02-17T03:09:10;101677.91;;;8.99;97.82
37852;BME280;23691;52.486;4.650;2023-02-17T03:11:38;101675.38;;;8.97;97.97
37852;BME280;23691;52.486;4.650;2023-02-17T03:14:11;101669.91;;;8.99;98.22
37852;BME280;23691;52.486;4.650;2023-02-17T03:16:37;101683.25;;;8.99;97.86
37852;BME280;23691;52.486;4.650;2023-02-17T03:19:04;101667.34;;;8.97;98.11
37852;BME280;23691;52.486;4.650;2023-02-17T03:21:38;101667.34;;;8.97;98.07
37852;BME280;23691;52.486;4.650;2023-02-17T03:24:06;101670.03;;;8.97;98.06
37852;BME280;23691;52.486;4.650;2023-02-17T03:26:32;101660.06;;;8.99;98.13
37852;BME280;23691;52.486;4.650;2023-02-17T03:28:57;101656.56;;;8.99;98.14
37852;BME280;23691;52.486;4.650;2023-02-17T03:31:23;101667.34;;;8.97;98.18
37852;BME280;23691;52.486;4.650;2023-02-17T03:33:48;101668.19;;;8.98;98.17
37852;BME280;23691;52.486;4.650;2023-02-17T03:36:14;101673.53;;;8.98;98.31
37852;BME280;23691;52.486;4.650;2023-02-17T03:38:39;101675.66;;;8.94;98.22
37852;BME280;23691;52.486;4.650;2023-02-17T03:41:05;101675.53;;;8.96;98.37
37852;BME280;23691;52.486;4.650;2023-02-17T03:43:30;101679.16;;;8.95;98.42
37852;BME280;23691;52.486;4.650;2023-02-17T03:45:55;101665.94;;;8.93;98.60
37852;BME280;23691;52.486;4.650;2023-02-17T03:48:21;101673.81;;;8.95;98.77
37852;BME280;23691;52.486;4.650;2023-02-17T03:50:46;101671.97;;;8.95;98.71
37852;BME280;23691;52.486;4.650;2023-02-17T03:53:12;101665.69;;;8.96;98.61
37852;BME280;23691;52.486;4.650;2023-02-17T03:55:37;101671.75;;;8.98;98.71
37852;BME280;23691;52.486;4.650;2023-02-17T03:58:03;101670.75;;;8.99;98.25
37852;BME280;23691;52.486;4.650;2023-02-17T04:00:28;101669.91;;;8.99;98.65
37852;BME280;23691;52.486;4.650;2023-02-17T04:02:54;101661.75;;;9.00;98.71
37852;BME280;23691;52.486;4.650;2023-02-17T04:05:22;101647.44;;;9.01;98.60
37852;BME280;23691;52.486;4.650;2023-02-17T04:07:48;101651.78;;;9.02;98.41
37852;BME280;23691;52.486;4.650;2023-02-17T04:10:13;101640.38;;;9.00;98.49
37852;BME280;23691;52.486;4.650;2023-02-17T04:12:39;101654.16;;;8.96;98.53
37852;BME280;23691;52.486;4.650;2023-02-17T04:15:05;101646.00;;;8.97;98.73
37852;BME280;23691;52.486;4.650;2023-02-17T04:17:30;101637.03;;;8.98;98.80
37852;BME280;23691;52.486;4.650;2023-02-17T04:19:56;101628.03;;;8.99;98.79
37852;BME280;23691;52.486;4.650;2023-02-17T04:22:21;101629.72;;;9.00;98.76
37852;BME280;23691;52.486;4.650;2023-02-17T04:24:46;101625.09;;;9.02;98.61
37852;BME280;23691;52.486;4.650;2023-02-17T04:27:12;101628.75;;;9.01;98.61
37852;BME280;23691;52.486;4.650;2023-02-17T04:29:37;101629.59;;;9.02;98.79
37852;BME280;23691;52.486;4.650;2023-02-17T04:32:03;101628.75;;;9.01;98.78
37852;BME280;23691;52.486;4.650;2023-02-17T04:34:28;101628.75;;;9.01;98.88
37852;BME280;23691;52.486;4.650;2023-02-17T04:36:54;101643.78;;;9.02;98.87
37852;BME280;23691;52.486;4.650;2023-02-17T04:39:22;101646.44;;;9.02;98.94
37852;BME280;23691;52.486;4.650;2023-02-17T04:41:47;101649.94;;;9.03;98.90
37852;BME280;23691;52.486;4.650;2023-02-17T04:44:13;101649.00;;;9.04;98.91
37852;BME280;23691;52.486;4.650;2023-02-17T04:46:38;101661.22;;;9.07;98.99
37852;BME280;23691;52.486;4.650;2023-02-17T04:49:04;101665.72;;;9.06;98.83
37852;BME280;23691;52.486;4.650;2023-02-17T04:51:29;101663.19;;;9.05;98.97
37852;BME280;23691;52.486;4.650;2023-02-17T04:53:54;101652.22;;;9.08;99.21
37852;BME280;23691;52.486;4.650;2023-02-17T04:56:20;101651.25;;;9.09;99.04
37852;BME280;23691;52.486;4.650;2023-02-17T04:58:45;101636.09;;;9.09;99.11
37852;BME280;23691;52.486;4.650;2023-02-17T05:01:11;101639.59;;;9.10;99.16
37852;BME280;23691;52.486;4.650;2023-02-17T05:03:36;101647.47;;;9.11;99.13
37852;BME280;23691;52.486;4.650;2023-02-17T05:06:01;101639.19;;;9.14;99.30
37852;BME280;23691;52.486;4.650;2023-02-17T05:08:27;101617.72;;;9.16;99.03
37852;BME280;23691;52.486;4.650;2023-02-17T05:10:52;101616.72;;;9.17;99.21
37852;BME280;23691;52.486;4.650;2023-02-17T05:13:18;101620.38;;;9.16;98.95
37852;BME280;23691;52.486;4.650;2023-02-17T05:15:44;101609.69;;;9.16;99.10
37852;BME280;23691;52.486;4.650;2023-02-17T05:18:11;101612.38;;;9.16;99.25
37852;BME280;23691;52.486;4.650;2023-02-17T05:20:36;101600.69;;;9.17;99.03
37852;BME280;23691;52.486;4.650;2023-02-17T05:23:02;101598.84;;;9.17;99.34
37852;BME280;23691;52.486;4.650;2023-02-17T05:25:28;101600.56;;;9.18;99.49
37852;BME280;23691;52.486;4.650;2023-02-17T05:27:53;101604.06;;;9.19;99.42
37852;BME280;23691;52.486;4.650;2023-02-17T05:30:19;101597.75;;;9.20;99.43
37852;BME280;23691;52.486;4.650;2023-02-17T05:32:44;101595.78;;;9.22;99.71
37852;BME280;23691;52.486;4.650;2023-02-17T05:35:10;101604.38;;;9.26;99.70
37852;BME280;23691;52.486;4.650;2023-02-17T05:37:36;101596.22;;;9.27;99.84
37852;BME280;23691;52.486;4.650;2023-02-17T05:40:02;101599.59;;;9.29;99.88
37852;BME280;23691;52.486;4.650;2023-02-17T05:42:27;101598.59;;;9.30;99.96
37852;BME280;23691;52.486;4.650;2023-02-17T05:44:54;101603.38;;;9.27;99.97
37852;BME280;23691;52.486;4.650;2023-02-17T05:47:20;101605.78;;;9.30;100.00
37852;BME280;23691;52.486;4.650;2023-02-17T05:49:45;101590.59;;;9.30;100.00
37852;BME280;23691;52.486;4.650;2023-02-17T05:52:11;101590.47;;;9.32;100.00
37852;BME280;23691;52.486;4.650;2023-02-17T05:54:36;101583.28;;;9.32;100.00
37852;BME280;23691;52.486;4.650;2023-02-17T05:57:01;101583.16;;;9.34;100.00
37852;BME280;23691;52.486;4.650;2023-02-17T05:59:27;101565.31;;;9.34;100.00
37852;BME280;23691;52.486;4.650;2023-02-17T06:01:52;101568.69;;;9.36;100.00
37852;BME280;23691;52.486;4.650;2023-02-17T06:04:18;101565.03;;;9.37;100.00
37852;BME280;23691;52.486;4.650;2023-02-17T06:06:43;101564.19;;;9.37;100.00
37852;BME280;23691;52.486;4.650;2023-02-17T06:09:08;101572.06;;;9.38;100.00
37852;BME280;23691;52.486;4.650;2023-02-17T06:11:34;101567.56;;;9.39;100.00
37852;BME280;23691;52.486;4.650;2023-02-17T06:13:59;101571.78;;;9.41;100.00
37852;BME280;23691;52.486;4.650;2023-02-17T06:16:44;101577.13;;;9.41;100.00
37852;BME280;23691;52.486;4.650;2023-02-17T06:19:09;101559.97;;;9.44;100.00
37852;BME280;23691;52.486;4.650;2023-02-17T06:21:35;101561.81;;;9.43;100.00
37852;BME280;23691;52.486;4.650;2023-02-17T06:24:00;101552.97;;;9.43;100.00
37852;BME280;23691;52.486;4.650;2023-02-17T06:26:25;101529.47;;;9.46;100.00
37852;BME280;23691;52.486;4.650;2023-02-17T06:28:51;101553.22;;;9.50;100.00
37852;BME280;23691;52.486;4.650;2023-02-17T06:31:16;101558.72;;;9.48;100.00
37852;BME280;23691;52.486;4.650;2023-02-17T06:33:42;101569.53;;;9.46;100.00
37852;BME280;23691;52.486;4.650;2023-02-17T06:36:07;101561.41;;;9.48;100.00
37852;BME280;23691;52.486;4.650;2023-02-17T06:38:32;101571.25;;;9.48;100.00
37852;BME280;23691;52.486;4.650;2023-02-17T06:40:58;101565.91;;;9.48;100.00
37852;BME280;23691;52.486;4.650;2023-02-17T06:43:23;101567.56;;;9.49;100.00
37852;BME280;23691;52.486;4.650;2023-02-17T06:45:48;101574.03;;;9.46;100.00
37852;BME280;23691;52.486;4.650;2023-02-17T06:48:14;101577.84;;;9.43;100.00
37852;BME280;23691;52.486;4.650;2023-02-17T06:50:39;101577.00;;;9.43;100.00
37852;BME280;23691;52.486;4.650;2023-02-17T06:53:05;101570.94;;;9.41;100.00
37852;BME280;23691;52.486;4.650;2023-02-17T06:55:31;101578.13;;;9.40;100.00
37852;BME280;23691;52.486;4.650;2023-02-17T06:57:58;101570.22;;;9.39;100.00
37852;BME280;23691;52.486;4.650;2023-02-17T07:00:24;101567.44;;;9.40;100.00
37852;BME280;23691;52.486;4.650;2023-02-17T07:02:51;101570.09;;;9.40;100.00
37852;BME280;23691;52.486;4.650;2023-02-17T07:05:16;101569.81;;;9.43;100.00
37852;BME280;23691;52.486;4.650;2023-02-17T07:07:41;101570.38;;;9.47;100.00
37852;BME280;23691;52.486;4.650;2023-02-17T07:10:07;101552.38;;;9.49;100.00
37852;BME280;23691;52.486;4.650;2023-02-17T07:12:33;101546.19;;;9.49;100.00
37852;BME280;23691;52.486;4.650;2023-02-17T07:14:58;101550.97;;;9.45;100.00
37852;BME280;23691;52.486;4.650;2023-02-17T07:17:23;101538.31;;;9.47;100.00
37852;BME280;23691;52.486;4.650;2023-02-17T07:19:49;101543.53;;;9.49;100.00
37852;BME280;23691;52.486;4.650;2023-02-17T07:22:14;101547.88;;;9.50;100.00
37852;BME280;23691;52.486;4.650;2023-02-17T07:24:39;101535.53;;;9.49;100.00
37852;BME280;23691;52.486;4.650;2023-02-17T07:27:05;101545.38;;;9.48;100.00
37852;BME280;23691;52.486;4.650;2023-02-17T07:29:31;101546.06;;;9.50;100.00
37852;BME280;23691;52.486;4.650;2023-02-17T07:31:56;101549.28;;;9.54;100.00
37852;BME280;23691;52.486;4.650;2023-02-17T07:34:21;101542.97;;;9.55;100.00
37852;BME280;23691;52.486;4.650;2023-02-17T07:36:47;101552.69;;;9.56;100.00
37852;BME280;23691;52.486;4.650;2023-02-17T07:39:12;101557.03;;;9.57;100.00
37852;BME280;23691;52.486;4.650;2023-02-17T07:41:38;101574.59;;;9.59;100.00
37852;BME280;23691;52.486;4.650;2023-02-17T07:44:03;101582.78;;;9.58;100.00
37852;BME280;23691;52.486;4.650;2023-02-17T07:46:28;101587.94;;;9.59;100.00
37852;BME280;23691;52.486;4.650;2023-02-17T07:48:56;101593.31;;;9.59;100.00
37852;BME280;23691;52.486;4.650;2023-02-17T07:51:22;101600.34;;;9.60;100.00
37852;BME280;23691;52.486;4.650;2023-02-17T07:53:49;101597.25;;;9.65;100.00
37852;BME280;23691;52.486;4.650;2023-02-17T07:56:16;101608.78;;;9.65;100.00
37852;BME280;23691;52.486;4.650;2023-02-17T07:58:43;101603.28;;;9.67;100.00
37852;BME280;23691;52.486;4.650;2023-02-17T08:01:11;101606.81;;;9.67;100.00
37852;BME280;23691;52.486;4.650;2023-02-17T08:03:37;101595.97;;;9.69;100.00
37852;BME280;23691;52.486;4.650;2023-02-17T08:06:07;101596.69;;;9.71;100.00
37852;BME280;23691;52.486;4.650;2023-02-17T08:08:32;101604.69;;;9.71;100.00
37852;BME280;23691;52.486;4.650;2023-02-17T08:11:16;101613.44;;;9.73;100.00
37852;BME280;23691;52.486;4.650;2023-02-17T08:14:00;101612.84;;;9.79;100.00
37852;BME280;23691;52.486;4.650;2023-02-17T08:16:26;101608.91;;;9.83;100.00
37852;BME280;23691;52.486;4.650;2023-02-17T08:18:53;101608.78;;;9.85;99.95
37852;BME280;23691;52.486;4.650;2023-02-17T08:21:20;101606.97;;;9.85;100.00
37852;BME280;23691;52.486;4.650;2023-02-17T08:23:46;101622.88;;;9.87;100.00
37852;BME280;23691;52.486;4.650;2023-02-17T08:26:11;101616.38;;;9.89;100.00
37852;BME280;23691;52.486;4.650;2023-02-17T08:28:37;101618.78;;;9.93;99.96
37852;BME280;23691;52.486;4.650;2023-02-17T08:31:02;101606.13;;;9.95;99.61
37852;BME280;23691;52.486;4.650;2023-02-17T08:33:27;101604.28;;;9.95;99.52
37852;BME280;23691;52.486;4.650;2023-02-17T08:35:53;101592.59;;;9.96;99.55
37852;BME280;23691;52.486;4.650;2023-02-17T08:38:18;101604.69;;;10.00;99.51
37852;BME280;23691;52.486;4.650;2023-02-17T08:40:44;101594.97;;;10.09;99.21
37852;BME280;23691;52.486;4.650;2023-02-17T08:43:09;101599.75;;;10.15;99.18
37852;BME280;23691;52.486;4.650;2023-02-17T08:45:35;101620.00;;;10.18;98.75
37852;BME280;23691;52.486;4.650;2023-02-17T08:48:04;101612.13;;;10.16;98.69
37852;BME280;23691;52.486;4.650;2023-02-17T08:50:31;101622.56;;;10.19;98.77
37852;BME280;23691;52.486;4.650;2023-02-17T08:52:57;101587.63;;;10.21;98.55
37852;BME280;23691;52.486;4.650;2023-02-17T08:55:22;101604.25;;;10.24;98.32
37852;BME280;23691;52.486;4.650;2023-02-17T08:57:48;101599.47;;;10.28;98.34
37852;BME280;23691;52.486;4.650;2023-02-17T09:00:15;101619.59;;;10.32;98.24
37852;BME280;23691;52.486;4.650;2023-02-17T09:02:41;101591.59;;;10.36;97.93
37852;BME280;23691;52.486;4.650;2023-02-17T09:05:10;101586.78;;;10.40;97.59
37852;BME280;23691;52.486;4.650;2023-02-17T09:07:37;101593.25;;;10.37;97.19
37852;BME280;23691;52.486;4.650;2023-02-17T09:10:05;101593.56;;;10.34;97.38
37852;BME280;23691;52.486;4.650;2023-02-17T09:12:30;101565.41;;;10.30;97.11
37852;BME280;23691;52.486;4.650;2023-02-17T09:14:56;101566.25;;;10.30;97.00
37852;BME280;23691;52.486;4.650;2023-02-17T09:17:21;101578.91;;;10.28;97.08
37852;BME280;23691;52.486;4.650;2023-02-17T09:19:46;101572.72;;;10.28;96.81
37852;BME280;23691;52.486;4.650;2023-02-17T09:22:12;101583.44;;;10.28;96.75
37852;BME280;23691;52.486;4.650;2023-02-17T09:24:39;101584.25;;;10.28;96.60
37852;BME280;23691;52.486;4.650;2023-02-17T09:27:04;101593.00;;;10.30;96.80
37852;BME280;23691;52.486;4.650;2023-02-17T09:29:30;101593.81;;;10.31;96.34
37852;BME280;23691;52.486;4.650;2023-02-17T09:31:55;101602.84;;;10.30;96.34
37852;BME280;23691;52.486;4.650;2023-02-17T09:34:21;101587.91;;;10.27;96.33
37852;BME280;23691;52.486;4.650;2023-02-17T09:36:46;101608.47;;;10.27;96.11
37852;BME280;23691;52.486;4.650;2023-02-17T09:39:11;101604.69;;;10.29;96.03
37852;BME280;23691;52.486;4.650;2023-02-17T09:41:47;101619.75;;;10.30;96.21
37852;BME280;23691;52.486;4.650;2023-02-17T09:44:31;101617.75;;;10.32;96.06
37852;BME280;23691;52.486;4.650;2023-02-17T09:47:14;101634.94;;;10.40;95.82
37852;BME280;23691;52.486;4.650;2023-02-17T09:50:03;101641.81;;;10.42;95.40
37852;BME280;23691;52.486;4.650;2023-02-17T09:52:57;101625.78;;;10.42;95.21
37852;BME280;23691;52.486;4.650;2023-02-17T09:55:28;101632.78;;;10.43;95.22
37852;BME280;23691;52.486;4.650;2023-02-17T09:57:58;101633.66;;;10.44;95.00
37852;BME280;23691;52.486;4.650;2023-02-17T10:00:31;101647.16;;;10.42;94.81
37852;BME280;23691;52.486;4.650;2023-02-17T10:03:19;101665.06;;;10.42;94.91
37852;BME280;23691;52.486;4.650;2023-02-17T10:06:12;101657.16;;;10.40;94.90
37852;BME280;23691;52.486;4.650;2023-02-17T10:11:15;101636.88;;;10.47;94.75
37852;BME280;23691;52.486;4.650;2023-02-17T10:13:44;101623.78;;;10.54;94.78
37852;BME280;23691;52.486;4.650;2023-02-17T10:16:19;101658.13;;;10.59;94.02
37852;BME280;23691;52.486;4.650;2023-02-17T10:19:18;101656.13;;;10.61;94.50
37852;BME280;23691;52.486;4.650;2023-02-17T10:21:52;101650.94;;;10.59;94.22
37852;BME280;23691;52.486;4.650;2023-02-17T10:24:21;101676.28;;;10.55;94.11
37852;BME280;23691;52.486;4.650;2023-02-17T10:32:27;101688.84;;;10.55;93.74
37852;BME280;23691;52.486;4.650;2023-02-17T10:37:58;101693.75;;;10.59;93.56
37852;BME280;23691;52.486;4.650;2023-02-17T10:40:26;101702.91;;;10.57;93.45
37852;BME280;23691;52.486;4.650;2023-02-17T10:43:01;101723.75;;;10.53;93.09
37852;BME280;23691;52.486;4.650;2023-02-17T10:45:32;101720.41;;;10.51;93.39
37852;BME280;23691;52.486;4.650;2023-02-17T10:48:11;101722.63;;;10.56;93.35
37852;BME280;23691;52.486;4.650;2023-02-17T10:50:40;101729.69;;;10.57;93.37
37852;BME280;23691;52.486;4.650;2023-02-17T10:53:12;101734.72;;;10.60;93.57
37852;BME280;23691;52.486;4.650;2023-02-17T10:58:18;101769.94;;;10.55;92.95
37852;BME280;23691;52.486;4.650;2023-02-17T11:00:49;101766.13;;;10.58;92.89
37852;BME280;23691;52.486;4.650;2023-02-17T11:03:21;101773.31;;;10.67;92.83
37852;BME280;23691;52.486;4.650;2023-02-17T11:05:56;101771.19;;;10.70;92.60
37852;BME280;23691;52.486;4.650;2023-02-17T11:08:34;101764.56;;;10.74;92.25
37852;BME280;23691;52.486;4.650;2023-02-17T11:11:21;101777.53;;;10.79;92.19
37852;BME280;23691;52.486;4.650;2023-02-17T11:16:45;101753.31;;;10.81;92.21
37852;BME280;23691;52.486;4.650;2023-02-17T11:19:22;101760.22;;;10.83;91.85
37852;BME280;23691;52.486;4.650;2023-02-17T11:21:50;101742.72;;;10.79;91.52
37852;BME280;23691;52.486;4.650;2023-02-17T11:24:16;101747.38;;;10.77;91.37
37852;BME280;23691;52.486;4.650;2023-02-17T11:26:42;101765.56;;;10.73;91.68
37852;BME280;23691;52.486;4.650;2023-02-17T11:29:20;101762.63;;;10.67;91.53
37852;BME280;23691;52.486;4.650;2023-02-17T11:32:00;101771.19;;;10.61;91.90
37852;BME280;23691;52.486;4.650;2023-02-17T11:34:30;101784.31;;;10.54;92.11
37852;BME280;23691;52.486;4.650;2023-02-17T11:39:37;101766.00;;;10.49;92.09
37852;BME280;23691;52.486;4.650;2023-02-17T11:44:47;101755.72;;;10.45;92.05
37852;BME280;23691;52.486;4.650;2023-02-17T11:55:28;101755.53;;;10.85;91.19
37852;BME280;23691;52.486;4.650;2023-02-17T12:01:17;101768.97;;;10.76;90.81
37852;BME280;23691;52.486;4.650;2023-02-17T12:06:43;101764.44;;;10.76;90.91
37852;BME280;23691;52.486;4.650;2023-02-17T12:09:23;101763.84;;;10.82;90.83
37852;BME280;23691;52.486;4.650;2023-02-17T12:11:58;101762.69;;;10.94;90.58
37852;BME280;23691;52.486;4.650;2023-02-17T12:17:15;101770.25;;;11.18;89.56
37852;BME280;23691;52.486;4.650;2023-02-17T12:19:55;101772.78;;;11.30;89.23
37852;BME280;23691;52.486;4.650;2023-02-17T12:25:34;101769.19;;;11.39;87.88
37852;BME280;23691;52.486;4.650;2023-02-17T12:30:55;101804.16;;;11.47;87.22
37852;BME280;23691;52.486;4.650;2023-02-17T12:33:43;101805.56;;;11.42;86.97
37852;BME280;23691;52.486;4.650;2023-02-17T12:36:16;101805.81;;;11.48;86.85
37852;BME280;23691;52.486;4.650;2023-02-17T12:41:24;101784.34;;;11.58;86.53
37852;BME280;23691;52.486;4.650;2023-02-17T12:43:58;101782.91;;;11.64;86.18
37852;BME280;23691;52.486;4.650;2023-02-17T12:46:35;101791.50;;;11.67;85.77
37852;BME280;23691;52.486;4.650;2023-02-17T12:49:08;101804.91;;;11.67;85.47
37852;BME280;23691;52.486;4.650;2023-02-17T12:51:50;101827.88;;;11.70;85.20
37852;BME280;23691;52.486;4.650;2023-02-17T12:54:38;101801.78;;;11.72;84.91
37852;BME280;23691;52.486;4.650;2023-02-17T12:59:36;101791.06;;;11.72;84.57
37852;BME280;23691;52.486;4.650;2023-02-17T13:02:11;101783.69;;;11.74;84.58
37852;BME280;23691;52.486;4.650;2023-02-17T13:04:37;101804.56;;;11.80;84.48
37852;BME280;23691;52.486;4.650;2023-02-17T13:07:06;101807.94;;;11.82;84.35
37852;BME280;23691;52.486;4.650;2023-02-17T13:09:38;101825.16;;;11.79;84.05
37852;BME280;23691;52.486;4.650;2023-02-17T13:12:17;101798.19;;;11.81;84.21
37852;BME280;23691;52.486;4.650;2023-02-17T13:14:57;101821.34;;;11.82;84.04
37852;BME280;23691;52.486;4.650;2023-02-17T13:17:32;101811.16;;;11.86;83.92
37852;BME280;23691;52.486;4.650;2023-02-17T13:20:23;101799.72;;;11.83;83.65
37852;BME280;23691;52.486;4.650;2023-02-17T13:22:49;101809.38;;;11.76;83.71
37852;BME280;23691;52.486;4.650;2023-02-17T13:25:29;101794.59;;;11.72;83.87
37852;BME280;23691;52.486;4.650;2023-02-17T13:27:56;101808.50;;;11.76;84.18
37852;BME280;23691;52.486;4.650;2023-02-17T13:33:25;101818.09;;;11.78;83.77
37852;BME280;23691;52.486;4.650;2023-02-17T13:35:45;101806.84;;;11.75;83.80
37852;BME280;23691;52.486;4.650;2023-02-17T13:38:11;101796.50;;;11.80;83.65
37852;BME280;23691;52.486;4.650;2023-02-17T13:40:38;101787.47;;;11.81;83.60
37852;BME280;23691;52.486;4.650;2023-02-17T13:43:16;101793.22;;;11.86;83.51
37852;BME280;23691;52.486;4.650;2023-02-17T13:46:02;101819.50;;;11.82;83.48
37852;BME280;23691;52.486;4.650;2023-02-17T13:48:30;101820.66;;;11.80;83.53
37852;BME280;23691;52.486;4.650;2023-02-17T13:51:20;101806.53;;;11.78;83.50
37852;BME280;23691;52.486;4.650;2023-02-17T13:53:48;101828.47;;;11.64;84.03
37852;BME280;23691;52.486;4.650;2023-02-17T13:56:26;101821.72;;;11.59;84.37
37852;BME280;23691;52.486;4.650;2023-02-17T13:58:52;101822.59;;;11.50;84.08
37852;BME280;23691;52.486;4.650;2023-02-17T14:01:24;101816.28;;;11.42;84.26
37852;BME280;23691;52.486;4.650;2023-02-17T14:03:53;101831.50;;;11.41;84.60
37852;BME280;23691;52.486;4.650;2023-02-17T14:06:37;101820.25;;;11.37;84.57
37852;BME280;23691;52.486;4.650;2023-02-17T14:09:32;101834.50;;;11.38;84.64
37852;BME280;23691;52.486;4.650;2023-02-17T14:12:01;101824.34;;;11.32;84.67
37852;BME280;23691;52.486;4.650;2023-02-17T14:14:32;101832.38;;;11.32;85.01
37852;BME280;23691;52.486;4.650;2023-02-17T14:17:29;101831.13;;;11.26;85.08
37852;BME280;23691;52.486;4.650;2023-02-17T14:19:58;101836.50;;;11.26;85.32
37852;BME280;23691;52.486;4.650;2023-02-17T14:22:30;101836.34;;;11.28;85.19